Jeffersonville, Illinois
Current Conditions -  °F | °C
As of 7:55 PM on Monday 24 Nov 2014 (Local Time) from KFWC Reporting Station
Overcast Overcast  
Wind Chill: 38°   Ceiling: 8000
Heat Index: 38°   Visibility: 10mi
Dew Point: 32°   Wind: 0mph
Humidity: 78%   Direction: NA
Pressure: 29.93"   Gusts: NA
Location:  38.4399°N, 88.4246°W
Report Text: KFWC 250155Z AUTO 00000KT 10SM OVC080 04/00 A2993 RMK AO1 T00350000
Loading
Personal Weather Stations






























Interactive Weather Map New forecast layout! Learn more

10-Day Weather Forecast

Advertisements
Track Severe Weather on mobile